createdAt,value
2023-02-03T00:00:54.002Z,97232.69
2023-02-03T00:01:55.963Z,97226.72
2023-02-03T00:03:00.735Z,97224.19
2023-02-03T00:04:02.702Z,97224.19
2023-02-03T00:05:08.031Z,97224.19
2023-02-03T00:06:12.708Z,97222.44
2023-02-03T00:07:17.728Z,97216.47
2023-02-03T00:08:20.308Z,97219.03
2023-02-03T00:09:24.886Z,97214.75
2023-02-03T00:10:27.182Z,97213.06
2023-02-03T00:11:33.480Z,97215.63
2023-02-03T00:12:35.432Z,97211.34
2023-02-03T00:13:40.499Z,97213.06
2023-02-03T00:14:42.412Z,97214.75
2023-02-03T00:15:46.959Z,97216.41
2023-02-03T00:16:49.072Z,97213.00
2023-02-03T00:17:53.655Z,97216.44
2023-02-03T00:18:55.561Z,97213.06
2023-02-03T00:20:00.094Z,97207.91
2023-02-03T00:21:02.152Z,97193.34
2023-02-03T00:22:09.322Z,97208.75
2023-02-03T00:23:12.540Z,97212.16
2023-02-03T00:24:18.927Z,97214.72
2023-02-03T00:25:21.577Z,97215.56
2023-02-03T00:26:28.735Z,97217.25
2023-02-03T00:27:30.725Z,97212.13
2023-02-03T00:28:35.255Z,97206.13
2023-02-03T00:29:37.160Z,97209.53
2023-02-03T00:30:41.655Z,97202.72
2023-02-03T00:31:43.687Z,97212.09
2023-02-03T00:32:48.199Z,97208.66
2023-02-03T00:33:54.486Z,97213.81
2023-02-03T00:34:59.025Z,97212.94
2023-02-03T00:36:05.349Z,97212.94
2023-02-03T00:37:14.751Z,97210.38
2023-02-03T00:38:16.675Z,97217.22
2023-02-03T00:39:21.204Z,97207.81
2023-02-03T00:40:25.845Z,97218.06
2023-02-03T00:41:33.615Z,97212.06
2023-02-03T00:42:35.928Z,97224.03
2023-02-03T00:43:40.501Z,97225.72
2023-02-03T00:44:42.723Z,97236.00
2023-02-03T00:45:47.329Z,97236.84
2023-02-03T00:46:49.265Z,97236.88
2023-02-03T00:47:53.724Z,97247.09
2023-02-03T00:48:55.609Z,97239.38
2023-02-03T00:50:00.147Z,97237.66
2023-02-03T00:51:02.072Z,97237.66
2023-02-03T00:52:06.739Z,97237.66
2023-02-03T00:53:11.241Z,97230.84
2023-02-03T00:54:16.076Z,97225.66
2023-02-03T00:55:18.038Z,97232.53
2023-02-03T00:56:22.564Z,97230.81
2023-02-03T00:57:24.502Z,97226.56
2023-02-03T00:58:29.018Z,97231.69
2023-02-03T00:59:30.995Z,97241.09
2023-02-03T01:00:35.490Z,97235.13
2023-02-03T01:01:40.388Z,97242.78
2023-02-03T01:02:42.392Z,97234.25
2023-02-03T01:03:46.980Z,97237.66
2023-02-03T01:04:49.115Z,97227.41
2023-02-03T01:05:53.624Z,97241.97
2023-02-03T01:06:57.668Z,97235.94
2023-02-03T01:08:03.597Z,97235.94
2023-02-03T01:09:08.322Z,97241.09
2023-02-03T01:10:14.986Z,97234.22
2023-02-03T01:11:19.124Z,97229.13
2023-02-03T01:12:23.610Z,97229.97
2023-02-03T01:13:25.506Z,97222.28
2023-02-03T01:14:30.779Z,97229.13
2023-02-03T01:15:32.674Z,97231.69
2023-02-03T01:16:38.337Z,97217.13
2023-02-03T01:17:40.343Z,97216.25
2023-02-03T01:18:45.543Z,97207.75
2023-02-03T01:19:47.485Z,97200.03
2023-02-03T01:20:52.136Z,97198.34
2023-02-03T01:21:54.150Z,97194.94
2023-02-03T01:22:58.685Z,97198.41
2023-02-03T01:24:01.002Z,97196.66
2023-02-03T01:25:08.911Z,97204.41
2023-02-03T01:26:13.141Z,97201.81
2023-02-03T01:27:17.700Z,97204.41
2023-02-03T01:28:19.600Z,97204.34
2023-02-03T01:29:24.776Z,97208.63
2023-02-03T01:30:26.927Z,97205.19
2023-02-03T01:31:35.094Z,97213.75
2023-02-03T01:32:37.109Z,97210.31
2023-02-03T01:33:46.243Z,97205.19
2023-02-03T01:34:48.131Z,97211.13
2023-02-03T01:35:52.679Z,97212.88
2023-02-03T01:36:54.865Z,97216.28
2023-02-03T01:37:59.639Z,97213.75
2023-02-03T01:39:02.020Z,97217.16
2023-02-03T01:40:10.896Z,97206.88
2023-02-03T01:41:15.272Z,97206.91
2023-02-03T01:42:19.853Z,97198.31
2023-02-03T01:43:32.256Z,97194.03
2023-02-03T01:44:47.958Z,97192.31
2023-02-03T01:45:50.021Z,97192.31
2023-02-03T01:46:55.325Z,97189.75
2023-02-03T01:48:02.668Z,97187.16
2023-02-03T01:49:08.471Z,97194.00
2023-02-03T01:50:18.094Z,97176.09
2023-02-03T01:51:20.522Z,97175.19
2023-02-03T01:52:25.226Z,97174.34
2023-02-03T01:53:27.251Z,97183.72
2023-02-03T01:54:35.484Z,97178.63
2023-02-03T01:55:44.187Z,97171.78
2023-02-03T01:56:54.279Z,97181.19
2023-02-03T01:57:59.975Z,97170.91
2023-02-03T01:59:04.656Z,97175.19
2023-02-03T02:00:08.307Z,97176.88
2023-02-03T02:01:12.890Z,97179.47
2023-02-03T02:02:15.064Z,97177.72
2023-02-03T02:03:22.473Z,97170.91
2023-02-03T02:04:40.190Z,97172.63
2023-02-03T02:05:51.062Z,97162.38
2023-02-03T02:06:54.106Z,97170.03
2023-02-03T02:08:01.066Z,97161.50
2023-02-03T02:09:03.682Z,97148.66
2023-02-03T02:10:09.092Z,97158.06
2023-02-03T02:11:13.847Z,97162.38
2023-02-03T02:12:18.342Z,97162.41
2023-02-03T02:13:21.125Z,97163.25
2023-02-03T02:14:25.933Z,97163.28
2023-02-03T02:15:40.064Z,97163.25
2023-02-03T02:16:50.204Z,97155.56
2023-02-03T02:18:15.476Z,97146.13
2023-02-03T02:19:47.712Z,97136.75
2023-02-03T02:21:00.612Z,97135.91
2023-02-03T02:22:17.166Z,97138.50
2023-02-03T02:23:41.883Z,97135.91
2023-02-03T02:25:21.283Z,97130.81
2023-02-03T02:26:49.811Z,97130.84
2023-02-03T02:28:25.815Z,97123.16
2023-02-03T02:29:57.472Z,97129.97
2023-02-03T02:31:24.991Z,97119.72
2023-02-03T02:32:46.377Z,97116.31
2023-02-03T02:33:58.027Z,97117.13
2023-02-03T02:35:06.452Z,97113.75
2023-02-03T02:36:18.556Z,97106.03
2023-02-03T02:37:34.131Z,97110.31
2023-02-03T02:38:49.520Z,97106.03
2023-02-03T02:40:00.865Z,97107.75
2023-02-03T02:41:09.711Z,97100.03
2023-02-03T02:42:22.298Z,97101.72
2023-02-03T02:43:35.879Z,97094.03
2023-02-03T02:44:46.730Z,97090.59
2023-02-03T02:45:50.960Z,97075.22
2023-02-03T02:46:58.194Z,97084.59
2023-02-03T02:48:10.651Z,97076.88
2023-02-03T02:49:19.993Z,97065.75
2023-02-03T02:50:26.858Z,97079.44
2023-02-03T02:51:34.157Z,97084.56
2023-02-03T02:52:41.725Z,97090.53
2023-02-03T02:53:52.108Z,97111.06
2023-02-03T02:54:57.287Z,97103.38
2023-02-03T02:56:06.024Z,97107.63
2023-02-03T02:57:11.869Z,97110.19
2023-02-03T02:58:19.499Z,97122.13
2023-02-03T02:59:21.509Z,97126.34
2023-02-03T03:00:26.782Z,97124.72
2023-02-03T03:01:28.975Z,97143.50
2023-02-03T03:02:37.214Z,97113.53
2023-02-03T03:03:44.579Z,97113.53
2023-02-03T03:04:52.625Z,97107.53
2023-02-03T03:05:59.241Z,97123.00
2023-02-03T03:07:07.660Z,97109.25
2023-02-03T03:08:13.338Z,97115.28
2023-02-03T03:09:20.718Z,97099.00
2023-02-03T03:10:27.844Z,97099.84
2023-02-03T03:11:36.677Z,97082.72
2023-02-03T03:12:44.213Z,97082.75
2023-02-03T03:13:52.798Z,97089.59
2023-02-03T03:15:00.417Z,97094.72
2023-02-03T03:16:07.727Z,97093.00
2023-02-03T03:17:14.997Z,97099.03
2023-02-03T03:18:24.444Z,97104.16
2023-02-03T03:19:33.958Z,97100.72
2023-02-03T03:20:42.997Z,97097.31
2023-02-03T03:21:49.688Z,97093.88
2023-02-03T03:22:59.161Z,97100.69
2023-02-03T03:24:09.234Z,97094.72
2023-02-03T03:25:15.011Z,97092.22
2023-02-03T03:26:27.967Z,97089.63
2023-02-03T03:27:34.526Z,97090.47
2023-02-03T03:28:48.325Z,97098.16
2023-02-03T03:29:57.441Z,97100.69
2023-02-03T03:31:02.189Z,97104.09
2023-02-03T03:32:05.028Z,97100.69
2023-02-03T03:33:11.049Z,97101.59
2023-02-03T03:34:14.835Z,97099.00
2023-02-03T03:35:22.334Z,97109.22
2023-02-03T03:36:29.811Z,97103.25
2023-02-03T03:37:38.637Z,97106.66
2023-02-03T03:38:45.493Z,97112.66
2023-02-03T03:39:54.072Z,97108.34
2023-02-03T03:41:02.081Z,97108.38
2023-02-03T03:42:14.651Z,97117.78
2023-02-03T03:43:20.369Z,97113.47
2023-02-03T03:44:31.452Z,97104.88
2023-02-03T03:45:41.105Z,97112.59
2023-02-03T03:46:52.635Z,97127.97
2023-02-03T03:47:57.677Z,97124.53
2023-02-03T03:49:05.989Z,97146.78
2023-02-03T03:50:12.199Z,97141.66
2023-02-03T03:51:22.960Z,97146.78
2023-02-03T03:52:30.012Z,97142.53
2023-02-03T03:53:39.159Z,97136.53
2023-02-03T03:54:42.928Z,97142.50
2023-02-03T03:55:52.352Z,97134.81
2023-02-03T03:57:00.102Z,97135.63
2023-02-03T03:58:08.559Z,97143.31
2023-02-03T03:59:14.338Z,97147.59
2023-02-03T04:00:22.868Z,97158.75
2023-02-03T04:01:26.115Z,97156.16
2023-02-03T04:02:32.752Z,97170.75
2023-02-03T04:03:40.140Z,97162.16
2023-02-03T04:04:46.705Z,97163.84
2023-02-03T04:05:48.870Z,97157.03
2023-02-03T04:06:56.335Z,97163.81
2023-02-03T04:07:59.326Z,97163.84
2023-02-03T04:09:05.613Z,97163.84
2023-02-03T04:10:14.829Z,97156.22
2023-02-03T04:11:39.307Z,97163.03
2023-02-03T04:12:41.307Z,97172.47
2023-02-03T04:13:45.795Z,97160.47
2023-02-03T04:14:47.807Z,97159.63
2023-02-03T04:15:52.450Z,97158.78
2023-02-03T04:16:54.414Z,97157.09
2023-02-03T04:18:01.430Z,97152.81
2023-02-03T04:19:03.400Z,97139.94
2023-02-03T04:20:08.860Z,97143.38
2023-02-03T04:21:10.753Z,97139.97
2023-02-03T04:22:17.864Z,97142.50
2023-02-03T04:23:19.761Z,97149.34
2023-02-03T04:24:24.427Z,97146.78
2023-02-03T04:25:26.868Z,97146.81
2023-02-03T04:26:31.389Z,97146.78
2023-02-03T04:27:34.334Z,97145.94
2023-02-03T04:28:38.870Z,97150.19
2023-02-03T04:29:40.786Z,97151.91
2023-02-03T04:30:45.404Z,97159.63
2023-02-03T04:31:47.385Z,97151.09
2023-02-03T04:32:52.127Z,97156.25
2023-02-03T04:33:54.995Z,97143.41
2023-02-03T04:34:59.753Z,97139.13
2023-02-03T04:36:01.694Z,97139.97
2023-02-03T04:37:06.191Z,97129.72
2023-02-03T04:38:10.744Z,97122.03
2023-02-03T04:39:15.227Z,97104.03
2023-02-03T04:40:18.106Z,97118.56
2023-02-03T04:41:22.656Z,97116.00
2023-02-03T04:42:25.294Z,97119.44
2023-02-03T04:43:29.988Z,97126.25
2023-02-03T04:44:31.937Z,97117.72
2023-02-03T04:45:36.472Z,97140.78
2023-02-03T04:46:38.549Z,97131.41
2023-02-03T04:47:43.091Z,97121.13
2023-02-03T04:48:45.243Z,97153.66
2023-02-03T04:49:49.847Z,97137.41
2023-02-03T04:50:51.759Z,97140.84
2023-02-03T04:51:56.249Z,97148.47
2023-02-03T04:53:00.604Z,97155.34
2023-02-03T04:54:07.851Z,97145.09
2023-02-03T04:55:09.759Z,97147.72
2023-02-03T04:56:16.132Z,97147.72
2023-02-03T04:57:18.184Z,97141.72
2023-02-03T04:58:22.792Z,97136.59
2023-02-03T04:59:24.707Z,97132.34
2023-02-03T05:00:30.846Z,97132.34
2023-02-03T05:01:32.823Z,97116.13
2023-02-03T05:02:37.460Z,97125.56
2023-02-03T05:03:39.600Z,97132.44
2023-02-03T05:04:44.153Z,97140.13
2023-02-03T05:05:46.340Z,97133.28
2023-02-03T05:06:51.174Z,97131.59
2023-02-03T05:07:53.072Z,97130.75
2023-02-03T05:08:57.861Z,97125.59
2023-02-03T05:10:02.493Z,97131.63
2023-02-03T05:11:07.489Z,97132.47
2023-02-03T05:12:11.975Z,97139.28
2023-02-03T05:13:13.943Z,97141.03
2023-02-03T05:14:18.422Z,97136.78
2023-02-03T05:15:20.436Z,97142.78
2023-02-03T05:16:25.155Z,97149.56
2023-02-03T05:17:27.107Z,97152.22
2023-02-03T05:18:31.617Z,97141.94
2023-02-03T05:19:33.563Z,97150.47
2023-02-03T05:20:38.296Z,97142.78
2023-02-03T05:21:42.909Z,97134.22
2023-02-03T05:22:44.825Z,97149.59
2023-02-03T05:23:49.491Z,97141.06
2023-02-03T05:24:51.556Z,97135.06
2023-02-03T05:25:58.672Z,97141.97
2023-02-03T05:27:00.638Z,97129.97
2023-02-03T05:28:05.636Z,97134.22
2023-02-03T05:29:08.001Z,97129.13
2023-02-03T05:30:13.973Z,97138.50
2023-02-03T05:31:18.658Z,97135.06
2023-02-03T05:32:20.717Z,97135.09
2023-02-03T05:33:25.209Z,97135.06
2023-02-03T05:34:27.142Z,97145.34
2023-02-03T05:35:31.684Z,97156.47
2023-02-03T05:36:33.590Z,97141.94
2023-02-03T05:37:38.114Z,97154.75
2023-02-03T05:38:42.670Z,97148.78
2023-02-03T05:39:44.585Z,97149.66
2023-02-03T05:41:03.556Z,97158.22
2023-02-03T05:42:10.699Z,97159.91
2023-02-03T05:43:13.225Z,97164.16
2023-02-03T05:44:17.725Z,97156.50
2023-02-03T05:45:19.601Z,97149.66
2023-02-03T05:46:24.101Z,97159.09
2023-02-03T05:47:25.982Z,97155.69
2023-02-03T05:48:30.503Z,97152.25
2023-02-03T05:49:32.465Z,97145.44
2023-02-03T05:50:38.689Z,97147.13
2023-02-03T05:51:41.297Z,97161.66
2023-02-03T05:52:45.909Z,97163.34
2023-02-03T05:53:47.803Z,97159.94
2023-02-03T05:54:52.308Z,97145.44
2023-02-03T05:55:54.445Z,97142.88
2023-02-03T05:56:58.987Z,97132.59
2023-02-03T05:58:04.040Z,97141.13
2023-02-03T05:59:09.386Z,97127.47
2023-02-03T06:00:13.124Z,97135.13
2023-02-03T06:01:17.739Z,97119.75
2023-02-03T06:02:19.676Z,97126.59
2023-02-03T06:03:24.260Z,97121.47
2023-02-03T06:04:26.411Z,97119.75
2023-02-03T06:05:31.989Z,97135.13
2023-02-03T06:06:34.104Z,97129.16
2023-02-03T06:07:38.763Z,97138.53
2023-02-03T06:08:40.715Z,97133.41
2023-02-03T06:09:45.320Z,97128.31
2023-02-03T06:10:47.235Z,97136.84
2023-02-03T06:11:51.751Z,97141.97
2023-02-03T06:12:53.819Z,97145.38
2023-02-03T06:14:02.129Z,97145.38
2023-02-03T06:15:04.933Z,97145.38
2023-02-03T06:16:09.969Z,97149.63
2023-02-03T06:17:11.941Z,97148.78
2023-02-03T06:18:16.433Z,97143.66
2023-02-03T06:19:18.344Z,97130.00
2023-02-03T06:20:23.554Z,97136.00
2023-02-03T06:21:25.538Z,97139.44
2023-02-03T06:22:30.082Z,97141.16
2023-02-03T06:23:32.065Z,97141.97
2023-02-03T06:24:36.564Z,97135.16
2023-02-03T06:25:38.500Z,97136.84
2023-02-03T06:26:43.009Z,97151.38
2023-02-03T06:27:44.908Z,97165.91
2023-02-03T06:28:49.495Z,97155.63
2023-02-03T06:29:54.039Z,97159.06
2023-02-03T06:30:58.631Z,97151.41
2023-02-03T06:32:00.751Z,97147.97
2023-02-03T06:33:05.881Z,97135.16
2023-02-03T06:34:07.882Z,97135.16
2023-02-03T06:35:12.595Z,97128.34
2023-02-03T06:36:17.376Z,97140.25
2023-02-03T06:37:19.355Z,97139.41
2023-02-03T06:38:23.882Z,97132.59
2023-02-03T06:39:25.878Z,97151.44
2023-02-03T06:40:30.841Z,97155.72
2023-02-03T06:41:32.997Z,97145.41
2023-02-03T06:42:37.619Z,97134.34
2023-02-03T06:43:42.118Z,97127.47
2023-02-03T06:44:44.437Z,97128.31
2023-02-03T06:45:51.704Z,97124.03
2023-02-03T06:46:53.701Z,97130.03
2023-02-03T06:47:58.208Z,97129.16
2023-02-03T06:49:00.451Z,97134.28
2023-02-03T06:50:05.184Z,97125.78
2023-02-03T06:51:09.722Z,97119.78
2023-02-03T06:52:14.494Z,97124.06
2023-02-03T06:53:16.539Z,97120.69
2023-02-03T06:54:21.195Z,97113.00
2023-02-03T06:55:23.188Z,97120.63
2023-02-03T06:56:27.771Z,97112.09
2023-02-03T06:57:29.708Z,97118.94
2023-02-03T06:58:34.223Z,97118.09
2023-02-03T06:59:36.139Z,97111.25
2023-02-03T07:00:40.662Z,97099.28
2023-02-03T07:01:45.203Z,97101.00
2023-02-03T07:02:56.775Z,97095.03
2023-02-03T07:04:01.103Z,97101.88
2023-02-03T07:05:03.068Z,97104.47
2023-02-03T07:06:08.270Z,97107.03
2023-02-03T07:07:10.169Z,97109.63
2023-02-03T07:08:14.631Z,97111.31
2023-02-03T07:09:16.687Z,97113.88
2023-02-03T07:10:21.544Z,97112.16
2023-02-03T07:11:23.809Z,97116.41
2023-02-03T07:12:28.665Z,97105.28
2023-02-03T07:13:30.655Z,97101.00
2023-02-03T07:14:36.104Z,97104.47
2023-02-03T07:15:41.072Z,97102.75
2023-02-03T07:16:48.203Z,97100.16
2023-02-03T07:17:54.976Z,97100.97
2023-02-03T07:18:57.496Z,97095.84
2023-02-03T07:20:02.075Z,97097.59
2023-02-03T07:21:07.918Z,97092.50
2023-02-03T07:22:13.716Z,97097.63
2023-02-03T07:23:15.623Z,97090.81
2023-02-03T07:24:20.221Z,97097.63
2023-02-03T07:25:22.783Z,97102.75
2023-02-03T07:26:27.368Z,97093.38
2023-02-03T07:27:29.868Z,97091.66
2023-02-03T07:28:34.947Z,97098.44
2023-02-03T07:29:36.919Z,97096.75
2023-02-03T07:30:41.489Z,97090.78
2023-02-03T07:31:48.707Z,97090.81
2023-02-03T07:32:51.606Z,97093.38
2023-02-03T07:33:56.428Z,97107.03
2023-02-03T07:34:58.321Z,97101.06
2023-02-03T07:36:03.560Z,97109.56
2023-02-03T07:37:08.128Z,97107.00
2023-02-03T07:38:10.725Z,97105.28
2023-02-03T07:39:15.244Z,97106.97
2023-02-03T07:40:20.565Z,97128.34
2023-02-03T07:41:22.620Z,97107.84
2023-02-03T07:42:27.171Z,97118.16
2023-02-03T07:43:29.048Z,97111.28
2023-02-03T07:44:33.548Z,97115.53
2023-02-03T07:45:38.099Z,97125.81
2023-02-03T07:46:44.865Z,97135.22
2023-02-03T07:47:52.054Z,97145.44
2023-02-03T07:48:53.980Z,97138.63
2023-02-03T07:49:58.459Z,97148.03
2023-02-03T07:51:03.024Z,97163.38
2023-02-03T07:52:05.098Z,97164.25
2023-02-03T07:53:10.213Z,97154.00
2023-02-03T07:54:15.430Z,97156.56
2023-02-03T07:55:17.408Z,97159.16
2023-02-03T07:56:21.942Z,97156.59
2023-02-03T07:57:23.883Z,97161.69
2023-02-03T07:58:28.353Z,97159.09
2023-02-03T07:59:32.905Z,97163.38
2023-02-03T08:00:35.378Z,97165.97
2023-02-03T08:01:40.041Z,97166.78
2023-02-03T08:02:42.033Z,97163.41
2023-02-03T08:03:49.157Z,97166.84
2023-02-03T08:04:53.712Z,97176.19
2023-02-03T08:05:55.683Z,97172.78
2023-02-03T08:07:00.695Z,97166.84
2023-02-03T08:08:02.678Z,97167.63
2023-02-03T08:09:07.168Z,97181.31
2023-02-03T08:10:10.450Z,97170.19
2023-02-03T08:11:15.100Z,97165.06
2023-02-03T08:12:17.027Z,97168.50
2023-02-03T08:13:21.574Z,97162.53
2023-02-03T08:14:24.042Z,97160.84
2023-02-03T08:15:28.599Z,97160.84
2023-02-03T08:16:30.712Z,97159.13
2023-02-03T08:17:36.066Z,97159.97
2023-02-03T08:18:41.037Z,97159.13
2023-02-03T08:19:45.596Z,97157.41
2023-02-03T08:20:50.684Z,97152.28
2023-02-03T08:21:52.595Z,97154.00
2023-02-03T08:22:57.144Z,97160.81
2023-02-03T08:24:01.643Z,97157.38
2023-02-03T08:25:06.309Z,97159.94
2023-02-03T08:26:10.846Z,97160.00
2023-02-03T08:27:13.370Z,97162.53
2023-02-03T08:28:17.994Z,97164.25
2023-02-03T08:29:20.356Z,97160.84
2023-02-03T08:30:25.990Z,97167.69
2023-02-03T08:31:30.757Z,97164.25
2023-02-03T08:32:33.603Z,97161.69
2023-02-03T08:33:38.148Z,97157.41
2023-02-03T08:34:40.425Z,97148.00
2023-02-03T08:35:52.112Z,97159.97
2023-02-03T08:36:56.363Z,97157.41
2023-02-03T08:38:00.955Z,97159.13
2023-02-03T08:39:02.874Z,97162.50
2023-02-03T08:40:09.165Z,97170.19
2023-02-03T08:41:15.200Z,97170.19
2023-02-03T08:42:19.899Z,97169.31
2023-02-03T08:43:24.414Z,97181.28
2023-02-03T08:44:29.024Z,97176.16
2023-02-03T08:45:33.680Z,97190.69
2023-02-03T08:46:43.659Z,97192.41
2023-02-03T08:47:48.243Z,97184.69
2023-02-03T08:48:53.029Z,97188.13
2023-02-03T08:49:57.530Z,97177.84
2023-02-03T08:51:04.799Z,97188.97
2023-02-03T08:52:10.988Z,97177.00
2023-02-03T08:53:15.585Z,97162.50
2023-02-03T08:54:20.083Z,97157.34
2023-02-03T08:55:22.077Z,97162.50
2023-02-03T08:56:27.723Z,97170.13
2023-02-03T08:57:35.498Z,97156.47
2023-02-03T08:58:38.818Z,97153.88
2023-02-03T08:59:45.737Z,97158.97
2023-02-03T09:00:49.988Z,97170.09
2023-02-03T09:01:55.331Z,97172.69
2023-02-03T09:02:59.909Z,97179.53
2023-02-03T09:04:07.333Z,97176.06
2023-02-03T09:05:12.856Z,97186.34
2023-02-03T09:06:22.791Z,97158.97
2023-02-03T09:07:28.590Z,97156.41
2023-02-03T09:08:33.528Z,97150.44
2023-02-03T09:09:38.071Z,97155.56
2023-02-03T09:10:42.598Z,97163.25
2023-02-03T09:11:47.098Z,97177.81
2023-02-03T09:12:51.647Z,97156.47
2023-02-03T09:13:57.960Z,97149.59
2023-02-03T09:15:02.471Z,97154.69
2023-02-03T09:16:07.950Z,97158.97
2023-02-03T09:17:13.035Z,97152.09
2023-02-03T09:18:17.624Z,97150.38
2023-02-03T09:19:19.543Z,97145.25
2023-02-03T09:20:25.014Z,97147.81
2023-02-03T09:21:36.666Z,97161.53
2023-02-03T09:22:47.652Z,97161.50
2023-02-03T09:23:52.156Z,97162.34
2023-02-03T09:24:56.783Z,97153.84
2023-02-03T09:26:04.843Z,97167.47
2023-02-03T09:27:09.369Z,97161.50
2023-02-03T09:28:13.867Z,97161.53
2023-02-03T09:29:16.128Z,97179.41
2023-02-03T09:30:21.035Z,97168.28
2023-02-03T09:31:25.631Z,97160.66
2023-02-03T09:32:30.167Z,97176.91
2023-02-03T09:33:34.720Z,97176.03
2023-02-03T09:34:41.448Z,97176.84
2023-02-03T09:35:46.008Z,97171.75
2023-02-03T09:36:53.290Z,97164.91
2023-02-03T09:37:55.282Z,97160.56
2023-02-03T09:39:00.436Z,97168.25
2023-02-03T09:40:04.961Z,97159.72
2023-02-03T09:41:23.356Z,97174.22
2023-02-03T09:42:58.447Z,97160.56
2023-02-03T09:44:09.991Z,97164.00
2023-02-03T09:45:20.999Z,97156.25
2023-02-03T09:46:29.428Z,97154.56
2023-02-03T09:47:36.802Z,97155.38
2023-02-03T09:48:46.383Z,97154.50
2023-02-03T09:49:53.969Z,97155.38
2023-02-03T09:50:58.638Z,97155.34
2023-02-03T09:52:14.459Z,97157.91
2023-02-03T09:53:30.193Z,97157.84
2023-02-03T09:54:43.490Z,97149.28
2023-02-03T09:55:49.041Z,97157.06
2023-02-03T09:56:55.679Z,97154.47
2023-02-03T09:58:06.988Z,97141.66
2023-02-03T09:59:12.883Z,97144.22
2023-02-03T10:00:19.437Z,97136.53
2023-02-03T10:01:27.124Z,97136.56
2023-02-03T10:02:51.965Z,97134.84
2023-02-03T10:04:04.924Z,97144.28
2023-02-03T10:05:16.577Z,97129.69
2023-02-03T10:06:30.715Z,97125.34
2023-02-03T10:07:50.919Z,97124.53
2023-02-03T10:09:21.731Z,97126.25
2023-02-03T10:10:38.620Z,97112.59
2023-02-03T10:11:59.492Z,97125.38
2023-02-03T10:13:14.588Z,97132.22
2023-02-03T10:14:35.633Z,97141.56
2023-02-03T10:16:00.213Z,97134.66
2023-02-03T10:17:21.546Z,97131.28
2023-02-03T10:18:31.025Z,97138.13
2023-02-03T10:19:41.009Z,97138.97
2023-02-03T10:20:50.026Z,97145.81
2023-02-03T10:21:55.528Z,97145.75
2023-02-03T10:23:07.205Z,97136.28
2023-02-03T10:24:17.072Z,97130.34
2023-02-03T10:25:27.426Z,97138.00
2023-02-03T10:26:32.571Z,97135.41
2023-02-03T10:27:39.594Z,97137.13
2023-02-03T10:28:51.033Z,97135.41
2023-02-03T10:30:00.892Z,97146.53
2023-02-03T10:31:14.024Z,97140.50
2023-02-03T10:32:18.575Z,97149.88
2023-02-03T10:33:23.356Z,97150.72
2023-02-03T10:34:25.643Z,97147.31
2023-02-03T10:35:38.961Z,97138.75
2023-02-03T10:36:56.513Z,97147.31
2023-02-03T10:38:03.904Z,97141.28
2023-02-03T10:39:19.116Z,97144.69
2023-02-03T10:40:29.370Z,97141.25
2023-02-03T10:41:32.571Z,97141.19
2023-02-03T10:42:49.802Z,97129.22
2023-02-03T10:43:57.595Z,97130.94
2023-02-03T10:45:00.775Z,97137.81
2023-02-03T10:46:05.408Z,97136.06
2023-02-03T10:47:24.807Z,97131.75
2023-02-03T10:48:27.840Z,97125.78
2023-02-03T10:49:32.772Z,97122.31
2023-02-03T10:50:38.819Z,97122.38
2023-02-03T10:51:49.633Z,97114.63
2023-02-03T10:52:54.253Z,97115.50
2023-02-03T10:54:00.371Z,97122.38
2023-02-03T10:55:12.022Z,97130.06
2023-02-03T10:56:18.273Z,97138.59
2023-02-03T10:57:22.951Z,97135.16
2023-02-03T10:58:31.147Z,97130.88
2023-02-03T10:59:38.578Z,97124.81
2023-02-03T11:00:40.915Z,97116.22
2023-02-03T11:01:48.029Z,97113.66
2023-02-03T11:02:59.549Z,97104.28
2023-02-03T11:04:06.574Z,97103.47
2023-02-03T11:05:11.424Z,97104.34
2023-02-03T11:06:17.867Z,97106.88
2023-02-03T11:07:27.568Z,97109.47
2023-02-03T11:08:31.075Z,97101.81
2023-02-03T11:09:40.766Z,97095.78
2023-02-03T11:10:43.418Z,97099.22
2023-02-03T11:11:47.965Z,97097.50
2023-02-03T11:12:49.915Z,97112.06
2023-02-03T11:14:15.301Z,97106.03
2023-02-03T11:15:17.345Z,97109.41
2023-02-03T11:16:24.702Z,97096.53
2023-02-03T11:17:33.576Z,97084.63
2023-02-03T11:18:42.375Z,97086.34
2023-02-03T11:19:49.164Z,97080.34
2023-02-03T11:20:51.195Z,97065.78
2023-02-03T11:21:57.558Z,97069.25
2023-02-03T11:23:00.610Z,97074.28
2023-02-03T11:24:09.107Z,97076.81
2023-02-03T11:25:27.118Z,97075.09
2023-02-03T11:26:34.898Z,97072.47
2023-02-03T11:27:39.456Z,97073.28
2023-02-03T11:28:44.875Z,97063.81
2023-02-03T11:29:53.062Z,97056.13
2023-02-03T11:30:57.298Z,97068.94
2023-02-03T11:32:05.456Z,97079.16
2023-02-03T11:33:17.768Z,97075.81
2023-02-03T11:34:27.061Z,97090.31
2023-02-03T11:35:31.948Z,97074.09
2023-02-03T11:36:38.415Z,97079.22
2023-02-03T11:37:45.348Z,97076.66
2023-02-03T11:38:47.324Z,97077.53
2023-02-03T11:39:52.138Z,97082.63
2023-02-03T11:41:02.707Z,97089.47
2023-02-03T11:42:25.399Z,97076.56
2023-02-03T11:43:29.307Z,97082.56
2023-02-03T11:44:33.952Z,97080.75
2023-02-03T11:45:44.481Z,97083.31
2023-02-03T11:46:50.675Z,97065.22
2023-02-03T11:47:58.599Z,97072.19
2023-02-03T11:49:11.823Z,97059.25
2023-02-03T11:50:26.564Z,97060.09
2023-02-03T11:51:37.115Z,97062.56
2023-02-03T11:52:58.821Z,97053.16
2023-02-03T11:54:18.624Z,97045.50
2023-02-03T11:55:37.487Z,97049.75
2023-02-03T11:57:05.208Z,97043.72
2023-02-03T11:58:40.084Z,97060.88
2023-02-03T11:59:56.345Z,97056.59
2023-02-03T12:01:15.875Z,97070.41
2023-02-03T12:02:51.796Z,97066.06
2023-02-03T12:04:22.849Z,97057.41
2023-02-03T12:05:50.578Z,97073.78
2023-02-03T12:07:25.567Z,97066.91
2023-02-03T12:08:45.893Z,97043.16
2023-02-03T12:09:59.776Z,97070.59
2023-02-03T12:11:14.679Z,97057.66
2023-02-03T12:12:35.587Z,97053.41
2023-02-03T12:14:02.626Z,97065.41
2023-02-03T12:15:23.032Z,97067.09
2023-02-03T12:16:55.849Z,97061.16
2023-02-03T12:18:14.536Z,97061.16
2023-02-03T12:19:29.883Z,97062.13
2023-02-03T12:20:47.130Z,97059.59
2023-02-03T12:21:59.213Z,97050.22
2023-02-03T12:23:14.727Z,97054.53
2023-02-03T12:24:32.628Z,97041.63
2023-02-03T12:25:47.253Z,97039.88
2023-02-03T12:26:59.910Z,97037.38
2023-02-03T12:28:32.560Z,97038.19
2023-02-03T12:29:43.431Z,97014.19
2023-02-03T12:30:49.931Z,97023.59
2023-02-03T12:32:02.776Z,97016.75
2023-02-03T12:33:15.423Z,97025.28
2023-02-03T12:34:26.098Z,97008.16
2023-02-03T12:35:33.605Z,97009.91
2023-02-03T12:36:43.137Z,97013.31
2023-02-03T12:37:52.364Z,97020.16
2023-02-03T12:39:00.558Z,97019.25
2023-02-03T12:40:09.357Z,97012.50
2023-02-03T12:41:18.569Z,97009.06
2023-02-03T12:42:29.013Z,97011.63
2023-02-03T12:43:40.927Z,96994.53
2023-02-03T12:44:50.615Z,97001.44
2023-02-03T12:45:57.187Z,97004.00
2023-02-03T12:47:07.712Z,96997.19
2023-02-03T12:48:17.996Z,96997.13
2023-02-03T12:49:34.286Z,96997.97
2023-02-03T12:50:45.263Z,97001.41
2023-02-03T12:51:55.228Z,97005.72
2023-02-03T12:53:06.020Z,96997.09
2023-02-03T12:54:21.837Z,97003.97
2023-02-03T12:55:34.868Z,97001.41
2023-02-03T12:56:43.649Z,96997.94
2023-02-03T12:57:54.929Z,96986.00
2023-02-03T12:59:07.805Z,96985.13
2023-02-03T13:00:22.215Z,96987.66
2023-02-03T13:01:31.311Z,96988.47
2023-02-03T13:02:37.825Z,96976.50
2023-02-03T13:03:48.641Z,96991.81
2023-02-03T13:04:57.379Z,96989.25
2023-02-03T13:06:11.403Z,96992.63
2023-02-03T13:07:24.802Z,96989.16